KINW

Winslow-Lindbergh Regional Airport

Winslow, Arizona, USA
METAR KINW 230056Z AUTO 21008KT 10SM CLR 18/06 A3002 RMK AO2 SLP125 T01830056
Observed Flight Rules
Oct-23 @ 00:56 UTC (6 minutes ago) Visual Flight Rules
Wind Visibility Clouds
210° at 8 knots 10 miles
  • Clear skies
Temperatures Readings
Current 18°C / 64°F
Dewpoint 6°C / 43°F
Humidity 46%
Altimeter 30.02" Hg
Pressure 1012.5 hPa
Elevation 1490
METAR KINW 230056Z AUTO 21008KT 10SM CLR 18/06 A3002 RMK AO2 SLP125 T01830056
Observed Flight Rules
Oct-23 @ 00:56 UTC
(6 minutes ago)
VFR
Wind Visibility
210° at 8 knots 10 miles
Clouds
  • Clear skies
Temperature Dewpoint
18°C / 64°F 6°C / 43°F
Humidity Altimeter Pressure
46% 30.02" Hg 1012.5 hPa